createdAt,value
2022-08-01T00:00:16.482Z,100682.84
2022-08-01T00:02:44.353Z,100696.59
2022-08-01T00:05:13.048Z,100681.25
2022-08-01T00:07:41.030Z,100689.97
2022-08-01T00:10:19.586Z,100677.13
2022-08-01T00:12:47.995Z,100681.50
2022-08-01T00:15:21.591Z,100679.75
2022-08-01T00:17:49.485Z,100693.34
2022-08-01T00:20:17.464Z,100680.66
2022-08-01T00:22:45.340Z,100682.59
2022-08-01T00:25:13.381Z,100683.56
2022-08-01T00:27:44.431Z,100687.59
2022-08-01T00:30:14.801Z,100677.03
2022-08-01T00:32:44.859Z,100691.13
2022-08-01T00:35:14.342Z,100677.00
2022-08-01T00:37:42.546Z,100686.34
2022-08-01T00:40:11.190Z,100684.81
2022-08-01T00:42:45.292Z,100684.94
2022-08-01T00:45:13.656Z,100684.63
2022-08-01T00:47:41.750Z,100682.56
2022-08-01T00:50:12.164Z,100682.84
2022-08-01T00:52:41.663Z,100674.50
2022-08-01T00:55:15.165Z,100675.66
2022-08-01T00:58:05.408Z,100673.22
2022-08-01T01:00:53.082Z,100676.03
2022-08-01T01:06:43.279Z,100677.00
2022-08-01T01:09:25.706Z,100678.88
2022-08-01T01:12:04.090Z,100662.84
2022-08-01T01:14:47.152Z,100648.91
2022-08-01T01:17:49.581Z,100653.16
2022-08-01T01:20:16.148Z,100656.66
2022-08-01T01:23:07.709Z,100668.22
2022-08-01T01:25:48.666Z,100659.66
2022-08-01T01:28:22.643Z,100665.84
2022-08-01T01:30:54.458Z,100672.44
2022-08-01T01:33:26.166Z,100680.00
2022-08-01T01:36:14.870Z,100667.84
2022-08-01T01:38:46.361Z,100684.13
2022-08-01T01:41:16.256Z,100683.97
2022-08-01T01:43:45.804Z,100683.16
2022-08-01T01:46:19.123Z,100692.53
2022-08-01T01:48:49.747Z,100678.03
2022-08-01T01:51:25.943Z,100684.81
2022-08-01T01:53:55.436Z,100696.38
2022-08-01T01:56:24.994Z,100677.88
2022-08-01T01:58:56.895Z,100684.84
2022-08-01T02:01:58.323Z,100689.75
2022-08-01T02:04:20.296Z,100690.88
2022-08-01T02:06:53.835Z,100700.09
2022-08-01T02:09:48.550Z,100699.03
2022-08-01T02:12:18.343Z,100702.09
2022-08-01T02:14:48.884Z,100696.88
2022-08-01T02:17:20.614Z,100689.13
2022-08-01T02:19:48.989Z,100692.56
2022-08-01T02:22:28.013Z,100698.56
2022-08-01T02:25:05.253Z,100697.69
2022-08-01T02:27:43.900Z,100704.66
2022-08-01T02:30:16.265Z,100705.72
2022-08-01T02:32:48.757Z,100699.13
2022-08-01T02:35:23.768Z,100700.19
2022-08-01T02:37:52.199Z,100705.28
2022-08-01T02:40:20.747Z,100705.66
2022-08-01T02:42:52.386Z,100705.84
2022-08-01T02:45:22.643Z,100719.59
2022-08-01T02:47:56.284Z,100706.06
2022-08-01T02:50:35.002Z,100702.91
2022-08-01T02:53:05.948Z,100706.22
2022-08-01T02:55:34.998Z,100707.13
2022-08-01T02:58:04.692Z,100724.97
2022-08-01T03:00:35.999Z,100720.66
2022-08-01T03:03:12.251Z,100718.00
2022-08-01T03:05:41.803Z,100715.38
2022-08-01T03:08:14.617Z,100721.28
2022-08-01T03:10:46.525Z,100722.72
2022-08-01T03:13:17.239Z,100727.16
2022-08-01T03:15:55.186Z,100705.13
2022-08-01T03:18:27.978Z,100722.94
2022-08-01T03:21:01.023Z,100711.19
2022-08-01T03:23:38.245Z,100728.94
2022-08-01T03:26:08.126Z,100734.22
2022-08-01T03:28:42.355Z,100728.81
2022-08-01T03:31:12.693Z,100735.41
2022-08-01T03:33:42.495Z,100742.47
2022-08-01T03:36:14.935Z,100750.03
2022-08-01T03:38:46.070Z,100744.53
2022-08-01T03:41:17.868Z,100747.22
2022-08-01T03:44:06.865Z,100736.34
2022-08-01T03:46:41.273Z,100753.22
2022-08-01T03:49:16.445Z,100756.44
2022-08-01T03:51:49.055Z,100747.72
2022-08-01T03:54:19.705Z,100756.94
2022-08-01T03:56:59.688Z,100760.97
2022-08-01T03:59:32.108Z,100763.44
2022-08-01T04:02:00.858Z,100764.28
2022-08-01T04:04:33.318Z,100772.06
2022-08-01T04:07:05.188Z,100765.19
2022-08-01T04:09:35.963Z,100764.50
2022-08-01T04:12:12.275Z,100765.41
2022-08-01T04:14:40.637Z,100764.41
2022-08-01T04:17:11.117Z,100768.94
2022-08-01T04:19:43.189Z,100777.66
2022-08-01T04:22:37.767Z,100781.28
2022-08-01T04:25:21.524Z,100781.47
2022-08-01T04:27:52.764Z,100779.88
2022-08-01T04:30:24.655Z,100777.34
2022-08-01T04:32:57.172Z,100782.75
2022-08-01T04:36:01.757Z,100785.38
2022-08-01T04:38:24.060Z,100790.47
2022-08-01T04:40:56.850Z,100792.72
2022-08-01T04:43:25.023Z,100793.44
2022-08-01T04:46:00.687Z,100796.97
2022-08-01T04:48:31.710Z,100805.63
2022-08-01T04:51:05.895Z,100787.94
2022-08-01T04:53:34.390Z,100806.97
2022-08-01T04:56:02.322Z,100805.50
2022-08-01T04:58:30.325Z,100811.06
2022-08-01T05:01:20.017Z,100815.81
2022-08-01T05:03:49.856Z,100811.25
2022-08-01T05:06:32.377Z,100817.44
2022-08-01T05:09:03.891Z,100817.13
2022-08-01T05:11:31.925Z,100815.41
2022-08-01T05:14:16.199Z,100825.00
2022-08-01T05:16:46.849Z,100822.38
2022-08-01T05:19:14.770Z,100823.25
2022-08-01T05:21:46.967Z,100825.13
2022-08-01T05:24:17.363Z,100836.03
2022-08-01T05:26:45.568Z,100834.38
2022-08-01T05:29:16.030Z,100830.03
2022-08-01T05:31:44.059Z,100827.06
2022-08-01T05:34:15.547Z,100830.69
2022-08-01T05:36:43.948Z,100828.06
2022-08-01T05:39:13.536Z,100828.81
2022-08-01T05:41:45.266Z,100829.34
2022-08-01T05:44:26.838Z,100829.78
2022-08-01T05:46:57.448Z,100827.81
2022-08-01T05:49:25.602Z,100833.19
2022-08-01T05:51:53.660Z,100828.44
2022-08-01T05:54:22.932Z,100830.22
2022-08-01T05:57:03.196Z,100834.03
2022-08-01T05:59:34.601Z,100829.97
2022-08-01T06:02:03.233Z,100824.97
2022-08-01T06:04:37.652Z,100841.03
2022-08-01T06:07:12.939Z,100847.72
2022-08-01T06:09:47.976Z,100843.66
2022-08-01T06:12:15.914Z,100838.75
2022-08-01T06:15:03.925Z,100842.13
2022-08-01T06:17:34.373Z,100849.47
2022-08-01T06:20:04.792Z,100854.28
2022-08-01T06:22:32.818Z,100854.00
2022-08-01T06:25:05.475Z,100859.03
2022-08-01T06:27:38.553Z,100862.88
2022-08-01T06:30:08.583Z,100867.25
2022-08-01T06:32:36.450Z,100881.44
2022-08-01T06:35:04.730Z,100872.69
2022-08-01T06:37:33.918Z,100882.13
2022-08-01T06:40:07.576Z,100880.50
2022-08-01T06:42:46.747Z,100889.13
2022-08-01T06:45:18.084Z,100883.13
2022-08-01T06:47:50.506Z,100886.56
2022-08-01T06:50:21.658Z,100893.94
2022-08-01T06:52:51.256Z,100881.59
2022-08-01T06:55:20.825Z,100882.41
2022-08-01T06:57:50.282Z,100881.00
2022-08-01T07:00:23.492Z,100872.38
2022-08-01T07:02:52.000Z,100879.78
2022-08-01T07:05:20.228Z,100887.81
2022-08-01T07:07:49.010Z,100876.16
2022-08-01T07:10:27.378Z,100868.28
2022-08-01T07:12:55.998Z,100885.59
2022-08-01T07:15:27.574Z,100884.56
2022-08-01T07:18:00.954Z,100885.41
2022-08-01T07:20:42.044Z,100871.28
2022-08-01T07:23:22.726Z,100887.56
2022-08-01T07:26:01.126Z,100896.28
2022-08-01T07:28:30.255Z,100895.72
2022-08-01T07:31:07.098Z,100897.38
2022-08-01T07:33:48.762Z,100903.13
2022-08-01T07:36:20.429Z,100909.78
2022-08-01T07:38:49.580Z,100900.75
2022-08-01T07:41:19.120Z,100906.72
2022-08-01T07:43:56.630Z,100914.91
2022-08-01T07:46:26.622Z,100915.94
2022-08-01T07:49:02.232Z,100914.09
2022-08-01T07:51:33.253Z,100917.44
2022-08-01T07:54:05.139Z,100914.06
2022-08-01T07:56:45.984Z,100927.53
2022-08-01T07:59:16.025Z,100928.38
2022-08-01T08:02:09.224Z,100938.44
2022-08-01T08:04:37.537Z,100935.19
2022-08-01T08:07:19.137Z,100944.63
2022-08-01T08:10:03.276Z,100945.81
2022-08-01T08:12:44.674Z,100945.72
2022-08-01T08:15:13.128Z,100954.38
2022-08-01T08:17:41.203Z,100941.75
2022-08-01T08:20:11.831Z,100954.50
2022-08-01T08:22:40.045Z,100946.63
2022-08-01T08:25:16.822Z,100954.09
2022-08-01T08:27:48.325Z,100953.41
2022-08-01T08:30:27.735Z,100945.84
2022-08-01T08:32:58.058Z,100948.25
2022-08-01T08:35:40.251Z,100947.81
2022-08-01T08:38:15.605Z,100954.78
2022-08-01T08:40:43.926Z,100960.47
2022-08-01T08:43:19.801Z,100960.63
2022-08-01T08:45:59.439Z,100961.69
2022-08-01T08:48:36.984Z,100966.31
2022-08-01T08:51:09.668Z,100970.66
2022-08-01T08:53:38.176Z,100968.91
2022-08-01T08:56:13.633Z,100977.72
2022-08-01T08:58:45.808Z,100974.94
2022-08-01T09:01:14.979Z,100977.22
2022-08-01T09:03:46.676Z,100985.09
2022-08-01T09:06:15.184Z,100984.84
2022-08-01T09:08:43.258Z,100987.03
2022-08-01T09:11:13.873Z,100990.97
2022-08-01T09:14:10.862Z,100994.66
2022-08-01T09:16:47.996Z,100998.44
2022-08-01T09:19:39.036Z,101006.91
2022-08-01T09:22:14.522Z,101004.50
2022-08-01T09:25:15.517Z,101009.09
2022-08-01T09:27:46.208Z,101011.50
2022-08-01T09:30:23.972Z,101000.09
2022-08-01T09:33:01.774Z,101017.66
2022-08-01T09:35:43.714Z,100998.34
2022-08-01T09:38:24.985Z,101019.56
2022-08-01T09:40:55.753Z,101028.84
2022-08-01T09:43:27.354Z,101023.63
2022-08-01T09:46:16.422Z,101025.72
2022-08-01T09:49:10.691Z,101027.66
2022-08-01T09:51:58.918Z,101026.56
2022-08-01T09:54:35.768Z,101032.72
2022-08-01T09:57:22.660Z,101037.00
2022-08-01T09:59:59.892Z,101045.72
2022-08-01T10:02:40.998Z,101046.34
2022-08-01T10:05:21.118Z,101045.13
2022-08-01T10:08:00.120Z,101053.22
2022-08-01T10:10:28.884Z,101054.50
2022-08-01T10:12:58.331Z,101060.03
2022-08-01T10:15:37.294Z,101062.44
2022-08-01T10:18:16.153Z,101062.19
2022-08-01T10:20:57.955Z,101064.75
2022-08-01T10:23:39.802Z,101058.00
2022-08-01T10:26:11.601Z,101065.44
2022-08-01T10:28:53.857Z,101063.72
2022-08-01T10:31:30.457Z,101062.75
2022-08-01T10:34:02.059Z,101056.34
2022-08-01T10:36:35.948Z,101053.25
2022-08-01T10:39:12.180Z,101050.19
2022-08-01T10:42:11.183Z,101057.94
2022-08-01T10:44:47.236Z,101058.13
2022-08-01T10:47:50.787Z,101035.16
2022-08-01T10:50:39.517Z,101034.88
2022-08-01T10:53:31.552Z,101049.97
2022-08-01T10:56:18.381Z,101046.91
2022-08-01T10:58:49.568Z,101050.41
2022-08-01T11:01:37.498Z,101055.78
2022-08-01T11:04:42.689Z,101054.34
2022-08-01T11:07:26.110Z,101052.00
2022-08-01T11:10:14.863Z,101050.59
2022-08-01T11:12:45.828Z,101052.97
2022-08-01T11:15:49.665Z,101055.25
2022-08-01T11:18:38.312Z,101056.53
2022-08-01T11:21:58.128Z,101053.88
2022-08-01T11:23:57.934Z,101059.69
2022-08-01T11:27:16.604Z,101057.88
2022-08-01T11:29:47.224Z,101064.06
2022-08-01T11:32:28.791Z,101052.13
2022-08-01T11:35:00.305Z,101063.72
2022-08-01T11:37:37.045Z,101063.00
2022-08-01T11:40:26.643Z,101066.44
2022-08-01T11:43:23.915Z,101061.19
2022-08-01T11:45:53.660Z,101070.84
2022-08-01T11:48:27.621Z,101069.22
2022-08-01T11:51:02.079Z,101077.44
2022-08-01T11:53:32.124Z,101065.94
2022-08-01T11:56:04.503Z,101066.91
2022-08-01T11:58:34.646Z,101065.44
2022-08-01T12:01:12.785Z,101068.34
2022-08-01T12:03:40.773Z,101074.47
2022-08-01T12:06:14.007Z,101077.25
2022-08-01T12:08:44.690Z,101070.19
2022-08-01T12:11:14.706Z,101076.53
2022-08-01T12:13:46.209Z,101075.25
2022-08-01T12:16:15.094Z,101065.34
2022-08-01T12:18:46.332Z,101073.88
2022-08-01T12:21:16.810Z,101072.25
2022-08-01T12:24:05.009Z,101071.22
2022-08-01T12:26:55.272Z,101076.06
2022-08-01T12:29:41.241Z,101076.16
2022-08-01T12:32:27.747Z,101073.59
2022-08-01T12:35:13.248Z,101068.38
2022-08-01T12:37:45.978Z,101069.41
2022-08-01T12:40:18.615Z,101074.63
2022-08-01T12:42:50.934Z,101075.34
2022-08-01T12:45:28.256Z,101065.66
2022-08-01T12:47:58.616Z,101066.56
2022-08-01T12:50:45.212Z,101077.47
2022-08-01T12:53:16.732Z,101078.78
2022-08-01T12:55:59.463Z,101075.97
2022-08-01T12:58:44.110Z,101078.22
2022-08-01T13:01:15.133Z,101072.53
2022-08-01T13:03:45.450Z,101074.97
2022-08-01T13:06:16.575Z,101070.03
2022-08-01T13:08:48.201Z,101080.63
2022-08-01T13:11:19.042Z,101078.25
2022-08-01T13:13:57.890Z,101067.13
2022-08-01T13:16:49.059Z,101076.66
2022-08-01T13:19:16.514Z,101075.31
2022-08-01T13:22:12.097Z,101072.97
2022-08-01T13:24:43.182Z,101078.84
2022-08-01T13:27:39.589Z,101075.97
2022-08-01T13:34:52.172Z,101073.72
2022-08-01T13:37:37.146Z,101069.91
2022-08-01T13:40:32.981Z,101079.44
2022-08-01T13:47:31.009Z,101068.16
2022-08-01T13:50:26.907Z,101072.97
2022-08-01T13:53:35.734Z,101085.34
2022-08-01T13:57:00.866Z,101073.41
2022-08-01T14:00:20.420Z,101077.72
2022-08-01T14:06:25.915Z,101071.28
2022-08-01T14:08:59.666Z,101073.16
2022-08-01T14:11:30.537Z,101074.53
2022-08-01T14:14:15.450Z,101072.72
2022-08-01T14:16:47.446Z,101071.38
2022-08-01T14:19:38.845Z,101071.84
2022-08-01T14:22:08.046Z,101079.03
2022-08-01T14:24:36.299Z,101077.56
2022-08-01T14:27:31.037Z,101076.94
2022-08-01T14:30:04.258Z,101081.56
2022-08-01T14:32:38.427Z,101079.34
2022-08-01T14:35:09.827Z,101082.69
2022-08-01T14:37:40.394Z,101076.69
2022-08-01T14:40:11.582Z,101078.19
2022-08-01T14:42:45.094Z,101078.41
2022-08-01T14:45:19.124Z,101082.13
2022-08-01T14:47:47.416Z,101072.97
2022-08-01T14:50:28.870Z,101078.66
2022-08-01T14:53:21.715Z,101072.22
2022-08-01T14:55:49.691Z,101075.66
2022-08-01T14:58:17.546Z,101075.38
2022-08-01T15:00:59.153Z,101072.88
2022-08-01T15:03:30.872Z,101069.34
2022-08-01T15:06:03.350Z,101074.25
2022-08-01T15:08:33.244Z,101079.41
2022-08-01T15:11:02.254Z,101079.47
2022-08-01T15:13:30.382Z,101078.66
2022-08-01T15:15:59.942Z,101081.53
2022-08-01T15:18:28.822Z,101092.03
2022-08-01T15:20:59.385Z,101090.81
2022-08-01T15:23:28.719Z,101082.72
2022-08-01T15:26:00.166Z,101078.91
2022-08-01T15:28:30.568Z,101088.88
2022-08-01T15:31:01.906Z,101089.78
2022-08-01T15:33:33.024Z,101094.84
2022-08-01T15:36:00.913Z,101087.81
2022-08-01T15:38:33.990Z,101093.53
2022-08-01T15:41:01.932Z,101093.22
2022-08-01T15:43:31.942Z,101095.00
2022-08-01T15:46:00.153Z,101090.91
2022-08-01T15:48:30.950Z,101086.41
2022-08-01T15:50:59.289Z,101086.38
2022-08-01T15:53:27.764Z,101092.88
2022-08-01T15:55:57.244Z,101087.69
2022-08-01T15:58:26.706Z,101083.50
2022-08-01T16:03:46.798Z,101084.63
2022-08-01T16:06:20.773Z,101079.31
2022-08-01T16:08:49.116Z,101082.53
2022-08-01T16:11:27.605Z,101081.31
2022-08-01T16:14:00.021Z,101078.75
2022-08-01T16:16:28.328Z,101080.72
2022-08-01T16:19:10.189Z,101084.06
2022-08-01T16:21:53.460Z,101103.94
2022-08-01T16:24:21.532Z,101088.91
2022-08-01T16:26:57.216Z,101066.22
2022-08-01T16:29:25.824Z,101085.16
2022-08-01T16:32:06.623Z,101092.66
2022-08-01T16:34:49.874Z,101096.63
2022-08-01T16:37:22.245Z,101087.91
2022-08-01T16:39:52.524Z,101092.81
2022-08-01T16:42:28.198Z,101083.75
2022-08-01T16:44:56.252Z,101088.81
2022-08-01T16:47:27.065Z,101091.78
2022-08-01T16:49:55.096Z,101087.13
2022-08-01T16:52:23.071Z,101076.06
2022-08-01T16:54:57.954Z,101095.81
2022-08-01T16:57:38.419Z,101097.56
2022-08-01T17:00:08.611Z,101093.97
2022-08-01T17:02:41.821Z,101098.84
2022-08-01T17:05:12.450Z,101096.91
2022-08-01T17:07:41.436Z,101096.78
2022-08-01T17:10:11.725Z,101095.03
2022-08-01T17:12:47.184Z,101095.03
2022-08-01T17:15:15.056Z,101098.03
2022-08-01T17:17:51.230Z,101095.59
2022-08-01T17:20:19.193Z,101088.72
2022-08-01T17:22:57.193Z,101094.81
2022-08-01T17:25:27.615Z,101098.53
2022-08-01T17:27:57.266Z,101078.97
2022-08-01T17:30:25.417Z,101094.53
2022-08-01T17:33:07.309Z,101096.91
2022-08-01T17:35:43.410Z,101092.75
2022-08-01T17:38:11.416Z,101088.59
2022-08-01T17:40:40.747Z,101098.91
2022-08-01T17:43:10.286Z,101091.00
2022-08-01T17:45:50.901Z,101098.06
2022-08-01T17:48:19.447Z,101097.28
2022-08-01T17:50:51.747Z,101099.41
2022-08-01T17:53:20.835Z,101103.34
2022-08-01T17:55:55.893Z,101104.94
2022-08-01T17:58:51.458Z,101097.69
2022-08-01T18:01:29.879Z,101100.72
2022-08-01T18:03:58.995Z,101097.88
2022-08-01T18:06:27.358Z,101113.09
2022-08-01T18:08:59.645Z,101116.41
2022-08-01T18:11:37.258Z,101110.31
2022-08-01T18:14:07.155Z,101115.81
2022-08-01T18:16:35.282Z,101115.44
2022-08-01T18:19:09.291Z,101108.88
2022-08-01T18:21:42.425Z,101125.22
2022-08-01T18:24:10.855Z,101123.19
2022-08-01T18:26:44.762Z,101122.91
2022-08-01T18:29:15.905Z,101122.72
2022-08-01T18:31:55.962Z,101125.84
2022-08-01T18:34:27.414Z,101123.91
2022-08-01T18:36:56.543Z,101129.31
2022-08-01T18:39:35.071Z,101128.84
2022-08-01T18:42:32.433Z,101129.19
2022-08-01T18:45:04.894Z,101131.47
2022-08-01T18:47:32.979Z,101128.13
2022-08-01T18:50:03.058Z,101133.88
2022-08-01T18:52:32.030Z,101135.13
2022-08-01T18:55:00.563Z,101132.00
2022-08-01T18:57:28.440Z,101136.72
2022-08-01T18:59:56.556Z,101148.34
2022-08-01T19:02:25.780Z,101144.47
2022-08-01T19:04:56.064Z,101142.22
2022-08-01T19:07:39.383Z,101132.38
2022-08-01T19:10:12.535Z,101138.66
2022-08-01T19:12:40.598Z,101121.94
2022-08-01T19:15:09.681Z,101145.72
2022-08-01T19:17:45.283Z,101155.66
2022-08-01T19:20:13.374Z,101162.22
2022-08-01T19:22:50.325Z,101159.28
2022-08-01T19:25:18.428Z,101164.16
2022-08-01T19:27:48.953Z,101179.28
2022-08-01T19:30:18.498Z,101178.88
2022-08-01T19:33:00.493Z,101182.00
2022-08-01T19:35:30.145Z,101189.38
2022-08-01T19:38:02.360Z,101185.59
2022-08-01T19:40:32.560Z,101187.97
2022-08-01T19:43:04.389Z,101197.19
2022-08-01T19:45:32.642Z,101198.53
2022-08-01T19:48:02.379Z,101202.31
2022-08-01T19:50:33.983Z,101202.69
2022-08-01T19:53:05.582Z,101205.47
2022-08-01T19:55:39.627Z,101207.81
2022-08-01T19:58:26.279Z,101207.59
2022-08-01T20:00:55.618Z,101210.94
2022-08-01T20:03:25.211Z,101222.47
2022-08-01T20:05:53.304Z,101231.47
2022-08-01T20:08:22.530Z,101222.63
2022-08-01T20:10:51.846Z,101221.97
2022-08-01T20:13:20.811Z,101219.00
2022-08-01T20:15:49.224Z,101224.53
2022-08-01T20:18:17.379Z,101219.09
2022-08-01T20:20:48.148Z,101234.19
2022-08-01T20:23:18.716Z,101223.56
2022-08-01T20:25:49.490Z,101222.22
2022-08-01T20:28:22.494Z,101241.06
2022-08-01T20:30:56.178Z,101228.66
2022-08-01T20:33:24.730Z,101236.72
2022-08-01T20:35:56.203Z,101231.16
2022-08-01T20:38:29.499Z,101243.91
2022-08-01T20:40:59.088Z,101242.13
2022-08-01T20:43:27.991Z,101245.91
2022-08-01T20:45:57.746Z,101252.19
2022-08-01T20:48:28.029Z,101249.06
2022-08-01T20:51:19.805Z,101256.50
2022-08-01T20:53:52.518Z,101266.25
2022-08-01T20:56:39.378Z,101265.13
2022-08-01T20:59:39.785Z,101264.66
2022-08-01T21:02:08.605Z,101261.97
2022-08-01T21:04:49.278Z,101260.19
2022-08-01T21:07:25.471Z,101253.66
2022-08-01T21:10:00.661Z,101253.38
2022-08-01T21:12:36.245Z,101257.47
2022-08-01T21:15:05.399Z,101247.91
2022-08-01T21:17:46.738Z,101253.81
2022-08-01T21:20:16.121Z,101267.72
2022-08-01T21:23:00.508Z,101277.00
2022-08-01T21:25:31.814Z,101284.94
2022-08-01T21:28:02.314Z,101280.22
2022-08-01T21:30:31.687Z,101273.44
2022-08-01T21:32:59.869Z,101277.78
2022-08-01T21:35:28.253Z,101284.81
2022-08-01T21:38:00.476Z,101280.66
2022-08-01T21:40:28.619Z,101276.84
2022-08-01T21:42:56.720Z,101286.56
2022-08-01T21:45:27.241Z,101273.25
2022-08-01T21:47:56.820Z,101278.38
2022-08-01T21:50:25.236Z,101276.88
2022-08-01T21:53:12.046Z,101275.50
2022-08-01T21:55:52.433Z,101275.25
2022-08-01T21:58:33.913Z,101274.13
2022-08-01T22:01:11.330Z,101276.53
2022-08-01T22:03:45.788Z,101265.09
2022-08-01T22:06:15.256Z,101267.63
2022-08-01T22:08:51.178Z,101267.41
2022-08-01T22:11:24.468Z,101264.75
2022-08-01T22:13:55.681Z,101271.94
2022-08-01T22:16:26.055Z,101264.63
2022-08-01T22:18:55.007Z,101259.03
2022-08-01T22:21:32.536Z,101260.06
2022-08-01T22:24:05.363Z,101257.38
2022-08-01T22:26:38.267Z,101254.50
2022-08-01T22:29:11.501Z,101256.66
2022-08-01T22:31:47.884Z,101251.84
2022-08-01T22:34:28.295Z,101263.13
2022-08-01T22:36:59.406Z,101254.38
2022-08-01T22:39:33.890Z,101267.81
2022-08-01T22:42:04.522Z,101261.59
2022-08-01T22:44:50.308Z,101270.75
2022-08-01T22:47:41.011Z,101261.88
2022-08-01T22:50:18.235Z,101264.66
2022-08-01T22:53:16.863Z,101272.81
2022-08-01T22:55:59.532Z,101241.56
2022-08-01T22:58:31.725Z,101264.66
2022-08-01T23:01:20.953Z,101277.09
2022-08-01T23:03:56.990Z,101280.13
2022-08-01T23:06:31.533Z,101273.31
2022-08-01T23:09:01.504Z,101277.38
2022-08-01T23:11:31.048Z,101277.38
2022-08-01T23:14:01.162Z,101277.38
2022-08-01T23:16:29.937Z,101288.53
2022-08-01T23:19:00.319Z,101287.88
2022-08-01T23:21:39.994Z,101295.38
2022-08-01T23:24:11.436Z,101290.81
2022-08-01T23:26:41.592Z,101296.94
2022-08-01T23:29:11.112Z,101299.31
2022-08-01T23:32:02.849Z,101299.31
2022-08-01T23:34:26.946Z,101296.94
2022-08-01T23:36:58.076Z,101297.31
2022-08-01T23:39:26.120Z,101291.06
2022-08-01T23:42:07.202Z,101290.81
2022-08-01T23:44:35.899Z,101287.25
2022-08-01T23:47:08.554Z,101282.97
2022-08-01T23:49:53.477Z,101278.38
2022-08-01T23:52:31.000Z,101274.69
2022-08-01T23:55:14.769Z,101267.22
2022-08-01T23:57:46.188Z,101271.78
